Aviation Digital Data Service (ADDS)

Output produced by METARs form (1427 UTC 27 March 2017)
found at http://aviationweather.gov/adds/metars/
 
KAOO 271332Z 2714/2812 19005KT 5SM BR VCSH BKN004 OVC015 
     FM271600 22007KT P6SM BKN012 OVC050 
     FM271800 25008KT P6SM SCT025 BKN050 
     FM280000 22003KT P6SM OVC050 
     FM280600 19003KT P6SM OVC025